createdAt,value
2023-04-01T00:01:53.202Z,12.82
2023-04-01T00:04:25.917Z,12.94
2023-04-01T00:06:58.742Z,12.93
2023-04-01T00:09:32.779Z,12.90
2023-04-01T00:12:05.689Z,12.91
2023-04-01T00:14:39.052Z,12.91
2023-04-01T00:17:12.333Z,12.90
2023-04-01T00:19:45.002Z,12.83
2023-04-01T00:22:17.649Z,12.86
2023-04-01T00:24:51.657Z,12.87
2023-04-01T00:27:24.403Z,12.88
2023-04-01T00:29:57.363Z,12.78
2023-04-01T00:32:31.597Z,12.83
2023-04-01T00:35:04.731Z,12.73
2023-04-01T00:37:38.689Z,12.84
2023-04-01T00:40:27.984Z,12.75
2023-04-01T00:43:00.831Z,12.73
2023-04-01T00:45:37.009Z,12.59
2023-04-01T00:48:13.537Z,12.65
2023-04-01T00:50:49.618Z,12.60
2023-04-01T00:53:23.598Z,12.68
2023-04-01T00:56:02.286Z,12.69
2023-04-01T00:58:38.854Z,12.59
2023-04-01T01:01:12.634Z,12.63
2023-04-01T01:03:45.449Z,12.72
2023-04-01T01:06:32.806Z,12.55
2023-04-01T01:09:17.290Z,12.66
2023-04-01T01:11:57.168Z,12.57
2023-04-01T01:14:42.218Z,12.60
2023-04-01T01:17:25.530Z,12.61
2023-04-01T01:20:26.172Z,12.64
2023-04-01T01:23:25.196Z,12.68
2023-04-01T01:26:12.380Z,12.73
2023-04-01T01:29:01.827Z,12.69
2023-04-01T01:31:39.720Z,12.61
2023-04-01T01:34:22.578Z,12.56
2023-04-01T01:37:01.488Z,12.51
2023-04-01T01:39:37.979Z,12.51
2023-04-01T01:42:15.992Z,12.51
2023-04-01T01:44:51.985Z,12.40
2023-04-01T01:47:26.577Z,12.62
2023-04-01T01:50:02.229Z,12.55
2023-04-01T01:52:36.514Z,12.45
2023-04-01T01:55:28.075Z,12.41
2023-04-01T01:58:07.517Z,12.52
2023-04-01T02:00:43.159Z,12.45
2023-04-01T02:03:18.933Z,12.53
2023-04-01T02:05:54.501Z,12.47
2023-04-01T02:08:32.835Z,12.58
2023-04-01T02:11:08.867Z,12.52
2023-04-01T02:13:52.331Z,12.43
2023-04-01T02:16:30.656Z,12.44
2023-04-01T02:19:08.510Z,12.54
2023-04-01T02:21:44.555Z,12.53
2023-04-01T02:24:18.732Z,12.48
2023-04-01T02:26:53.157Z,12.52
2023-04-01T02:29:27.071Z,12.42
2023-04-01T02:32:00.647Z,12.48
2023-04-01T02:34:34.350Z,12.48
2023-04-01T02:37:07.271Z,12.48
2023-04-01T02:39:43.716Z,12.38
2023-04-01T02:42:16.539Z,12.34
2023-04-01T02:44:49.795Z,12.45
2023-04-01T02:47:22.393Z,12.43
2023-04-01T02:49:58.775Z,12.45
2023-04-01T02:52:32.202Z,12.48
2023-04-01T02:55:10.121Z,12.47
2023-04-01T02:57:42.911Z,12.37
2023-04-01T03:00:17.342Z,12.43
2023-04-01T03:02:53.255Z,12.43
2023-04-01T03:05:26.692Z,12.47
2023-04-01T03:07:59.419Z,12.40
2023-04-01T03:10:33.578Z,12.39
2023-04-01T03:13:07.273Z,12.39
2023-04-01T03:15:40.374Z,12.46
2023-04-01T03:18:13.169Z,12.43
2023-04-01T03:20:46.060Z,12.44
2023-04-01T03:23:20.615Z,12.47
2023-04-01T03:25:55.384Z,12.44
2023-04-01T03:28:28.247Z,12.45
2023-04-01T03:31:01.057Z,12.40
2023-04-01T03:33:35.342Z,12.42
2023-04-01T03:36:08.582Z,12.42
2023-04-01T03:38:42.516Z,12.47
2023-04-01T03:41:18.266Z,12.43
2023-04-01T03:43:51.149Z,12.41
2023-04-01T03:46:24.114Z,12.43
2023-04-01T03:48:57.022Z,12.42
2023-04-01T03:51:29.952Z,12.42
2023-04-01T03:54:03.010Z,12.35
2023-04-01T03:56:36.985Z,12.36
2023-04-01T03:59:10.238Z,12.40
2023-04-01T04:01:43.311Z,12.41
2023-04-01T04:04:16.357Z,12.40
2023-04-01T04:06:50.259Z,12.39
2023-04-01T04:09:23.587Z,12.33
2023-04-01T04:11:57.701Z,12.44
2023-04-01T04:14:30.440Z,12.36
2023-04-01T04:17:03.178Z,12.41
2023-04-01T04:19:35.954Z,12.39
2023-04-01T04:22:08.853Z,12.38
2023-04-01T04:24:41.581Z,12.32
2023-04-01T04:27:19.674Z,12.32
2023-04-01T04:30:01.534Z,12.39
2023-04-01T04:32:35.732Z,12.36
2023-04-01T04:35:09.721Z,12.38
2023-04-01T04:37:42.575Z,12.37
2023-04-01T04:40:15.703Z,12.32
2023-04-01T04:42:50.047Z,12.39
2023-04-01T04:45:22.976Z,12.44
2023-04-01T04:48:01.351Z,12.39
2023-04-01T04:50:34.675Z,12.32
2023-04-01T04:53:07.609Z,12.36
2023-04-01T04:55:45.084Z,12.30
2023-04-01T04:58:37.180Z,12.39
2023-04-01T05:01:12.226Z,12.39
2023-04-01T05:03:46.904Z,12.31
2023-04-01T05:06:22.249Z,12.37
2023-04-01T05:08:56.985Z,12.36
2023-04-01T05:11:29.811Z,12.41
2023-04-01T05:14:04.666Z,12.39
2023-04-01T05:16:38.681Z,12.36
2023-04-01T05:19:11.434Z,12.32
2023-04-01T05:21:44.178Z,12.33
2023-04-01T05:24:17.015Z,12.28
2023-04-01T05:26:50.702Z,12.33
2023-04-01T05:29:24.899Z,12.30
2023-04-01T05:32:03.977Z,12.26
2023-04-01T05:34:37.118Z,12.34
2023-04-01T05:37:10.639Z,12.33
2023-04-01T05:39:43.901Z,12.30
2023-04-01T05:42:17.320Z,12.27
2023-04-01T05:44:51.669Z,12.25
2023-04-01T05:47:43.186Z,12.20
2023-04-01T05:50:16.264Z,12.20
2023-04-01T05:52:48.994Z,12.25
2023-04-01T05:55:21.960Z,12.18
2023-04-01T05:57:56.556Z,12.23
2023-04-01T06:00:30.649Z,12.19
2023-04-01T06:03:05.540Z,12.24
2023-04-01T06:05:42.056Z,12.27
2023-04-01T06:08:20.424Z,12.19
2023-04-01T06:11:15.610Z,12.18
2023-04-01T06:14:09.604Z,12.24
2023-04-01T06:17:03.267Z,12.28
2023-04-01T06:19:44.957Z,12.23
2023-04-01T06:22:32.343Z,12.30
2023-04-01T06:25:35.023Z,12.23
2023-04-01T06:28:40.811Z,12.18
2023-04-01T06:31:28.202Z,12.12
2023-04-01T06:34:22.983Z,12.14
2023-04-01T06:37:12.052Z,12.18
2023-04-01T06:40:00.767Z,12.22
2023-04-01T06:42:42.004Z,12.21
2023-04-01T06:45:41.439Z,12.23
2023-04-01T06:48:55.362Z,12.23
2023-04-01T06:51:55.186Z,12.22
2023-04-01T06:54:57.619Z,12.26
2023-04-01T06:57:57.093Z,12.22
2023-04-01T07:00:34.533Z,12.24
2023-04-01T07:03:18.580Z,12.27
2023-04-01T07:05:51.611Z,12.23
2023-04-01T07:08:29.902Z,12.25
2023-04-01T07:11:05.860Z,12.29
2023-04-01T07:14:01.874Z,12.25
2023-04-01T07:16:38.967Z,12.28
2023-04-01T07:19:18.672Z,12.31
2023-04-01T07:22:21.915Z,12.25
2023-04-01T07:25:18.764Z,12.33
2023-04-01T07:28:05.734Z,12.40
2023-04-01T07:30:50.771Z,12.38
2023-04-01T07:33:31.856Z,12.43
2023-04-01T07:36:10.539Z,12.43
2023-04-01T07:38:56.538Z,12.41
2023-04-01T07:41:54.023Z,12.41
2023-04-01T07:44:37.899Z,12.38
2023-04-01T07:47:22.860Z,12.40
2023-04-01T07:50:04.941Z,12.45
2023-04-01T07:52:48.723Z,12.45
2023-04-01T07:55:33.897Z,12.44
2023-04-01T07:58:16.253Z,12.47
2023-04-01T08:00:57.507Z,12.48
2023-04-01T08:03:58.895Z,12.47
2023-04-01T08:06:38.856Z,12.52
2023-04-01T08:09:23.423Z,12.55
2023-04-01T08:12:24.340Z,12.59
2023-04-01T08:15:27.999Z,12.61
2023-04-01T08:18:36.178Z,12.60
2023-04-01T08:21:14.695Z,12.65
2023-04-01T08:23:50.572Z,12.61
2023-04-01T08:26:32.922Z,12.63
2023-04-01T08:29:11.507Z,12.69
2023-04-01T08:31:54.950Z,12.74
2023-04-01T08:34:34.043Z,12.66
2023-04-01T08:37:11.760Z,12.72
2023-04-01T08:39:48.019Z,12.78
2023-04-01T08:42:43.788Z,12.80
2023-04-01T08:45:31.661Z,12.70
2023-04-01T08:48:29.885Z,12.66
2023-04-01T08:51:30.559Z,12.81
2023-04-01T08:54:22.097Z,12.89
2023-04-01T08:57:06.103Z,13.02
2023-04-01T09:00:02.085Z,13.02
2023-04-01T09:03:38.740Z,12.98
2023-04-01T09:06:34.107Z,12.89
2023-04-01T09:09:25.001Z,13.01
2023-04-01T09:12:34.449Z,13.03
2023-04-01T09:15:23.198Z,13.05
2023-04-01T09:18:20.065Z,13.03
2023-04-01T09:21:25.244Z,13.06
2023-04-01T09:24:35.168Z,13.11
2023-04-01T09:27:16.518Z,13.06
2023-04-01T09:30:16.918Z,13.16
2023-04-01T09:33:34.680Z,13.28
2023-04-01T09:36:19.973Z,13.34
2023-04-01T09:38:59.103Z,13.29
2023-04-01T09:41:34.200Z,13.30
2023-04-01T09:44:36.944Z,13.35
2023-04-01T09:47:37.014Z,13.33
2023-04-01T09:50:31.771Z,13.37
2023-04-01T09:53:22.221Z,13.38
2023-04-01T09:56:32.537Z,13.39
2023-04-01T09:59:39.827Z,13.48
2023-04-01T10:03:03.016Z,13.51
2023-04-01T10:06:25.354Z,13.36
2023-04-01T10:09:33.916Z,13.42
2023-04-01T10:12:27.073Z,13.49
2023-04-01T10:15:29.935Z,13.42
2023-04-01T10:18:26.328Z,13.42
2023-04-01T10:21:22.892Z,13.51
2023-04-01T10:24:21.322Z,13.52
2023-04-01T10:27:19.353Z,13.48
2023-04-01T10:30:34.825Z,13.48
2023-04-01T10:33:43.948Z,13.43
2023-04-01T10:36:46.749Z,13.50
2023-04-01T10:39:36.721Z,13.51
2023-04-01T10:43:09.303Z,13.52
2023-04-01T10:46:16.373Z,13.56
2023-04-01T10:49:23.278Z,13.52
2023-04-01T10:52:26.328Z,13.49
2023-04-01T10:56:03.451Z,13.50
2023-04-01T10:59:22.765Z,13.42
2023-04-01T11:03:04.830Z,13.43
2023-04-01T11:06:32.678Z,13.46
2023-04-01T11:09:37.847Z,13.47
2023-04-01T11:12:35.608Z,13.47
2023-04-01T11:15:27.336Z,13.46
2023-04-01T11:18:31.070Z,13.47
2023-04-01T11:21:44.934Z,13.45
2023-04-01T11:24:36.919Z,13.53
2023-04-01T11:27:52.240Z,13.59
2023-04-01T11:30:35.504Z,13.64
2023-04-01T11:33:20.616Z,13.70
2023-04-01T11:36:08.747Z,13.62
2023-04-01T11:39:02.642Z,13.70
2023-04-01T11:42:19.944Z,13.71
2023-04-01T11:45:26.637Z,13.71
2023-04-01T11:48:29.247Z,13.75
2023-04-01T11:51:32.527Z,13.76
2023-04-01T11:54:12.661Z,13.81
2023-04-01T11:57:01.636Z,13.87
2023-04-01T11:59:54.930Z,13.86
2023-04-01T12:02:32.617Z,13.90
2023-04-01T12:05:31.154Z,13.89
2023-04-01T12:08:15.640Z,13.86
2023-04-01T12:10:57.928Z,13.92
2023-04-01T12:13:41.970Z,13.98
2023-04-01T12:16:35.751Z,14.03
2023-04-01T12:19:19.939Z,14.04
2023-04-01T12:22:10.193Z,14.02
2023-04-01T12:24:49.244Z,14.02
2023-04-01T12:27:41.374Z,13.96
2023-04-01T12:30:41.948Z,13.98
2023-04-01T12:33:35.452Z,14.04
2023-04-01T12:36:26.319Z,14.04
2023-04-01T12:39:21.414Z,13.96
2023-04-01T12:42:04.243Z,13.99
2023-04-01T12:45:06.532Z,14.05
2023-04-01T12:48:03.373Z,14.02
2023-04-01T12:51:15.899Z,14.07
2023-04-01T12:54:20.002Z,14.04
2023-04-01T12:57:06.355Z,14.09
2023-04-01T13:00:06.189Z,14.12
2023-04-01T13:02:53.443Z,14.08
2023-04-01T13:05:52.774Z,14.08
2023-04-01T13:08:38.940Z,14.10
2023-04-01T13:11:22.723Z,14.13
2023-04-01T13:14:31.883Z,14.07
2023-04-01T13:17:19.224Z,14.16
2023-04-01T13:20:05.461Z,14.09
2023-04-01T13:22:57.691Z,14.19
2023-04-01T13:25:41.279Z,14.19
2023-04-01T13:28:20.898Z,14.15
2023-04-01T13:31:00.386Z,14.15
2023-04-01T13:33:42.206Z,14.17
2023-04-01T13:36:29.270Z,14.13
2023-04-01T13:39:17.115Z,14.23
2023-04-01T13:42:07.625Z,14.15
2023-04-01T13:44:48.964Z,14.16
2023-04-01T13:47:54.869Z,14.15
2023-04-01T13:50:54.270Z,14.04
2023-04-01T13:53:47.847Z,14.15
2023-04-01T13:56:39.783Z,14.23
2023-04-01T13:59:37.751Z,14.15
2023-04-01T14:02:30.374Z,14.23
2023-04-01T14:05:32.464Z,14.23
2023-04-01T14:08:28.451Z,14.21
2023-04-01T14:11:12.638Z,14.19
2023-04-01T14:13:57.115Z,14.10
2023-04-01T14:16:50.875Z,14.17
2023-04-01T14:19:37.844Z,14.01
2023-04-01T14:22:21.863Z,13.91
2023-04-01T14:25:20.838Z,14.05
2023-04-01T14:28:01.812Z,14.09
2023-04-01T14:30:45.812Z,14.03
2023-04-01T14:33:30.550Z,14.00
2023-04-01T14:36:31.092Z,14.00
2023-04-01T14:39:22.437Z,14.03
2023-04-01T14:42:21.576Z,13.97
2023-04-01T14:45:22.402Z,13.91
2023-04-01T14:47:58.140Z,13.94
2023-04-01T14:50:42.385Z,13.80
2023-04-01T14:53:28.981Z,13.86
2023-04-01T14:56:03.990Z,13.79
2023-04-01T14:58:46.640Z,13.79
2023-04-01T15:01:34.039Z,13.78
2023-04-01T15:04:30.634Z,13.80
2023-04-01T15:07:21.937Z,13.73
2023-04-01T15:10:04.790Z,13.83
2023-04-01T15:12:45.856Z,13.83
2023-04-01T15:15:28.310Z,13.79
2023-04-01T15:18:11.796Z,13.77
2023-04-01T15:21:20.237Z,13.68
2023-04-01T15:24:09.836Z,13.67
2023-04-01T15:27:10.269Z,13.72
2023-04-01T15:30:20.124Z,13.74
2023-04-01T15:33:16.642Z,13.67
2023-04-01T15:35:58.549Z,13.74
2023-04-01T15:38:38.202Z,13.74
2023-04-01T15:41:17.843Z,13.69
2023-04-01T15:43:53.311Z,13.65
2023-04-01T15:46:46.685Z,13.67
2023-04-01T15:49:25.872Z,13.75
2023-04-01T15:52:07.782Z,13.72
2023-04-01T15:55:10.283Z,13.69
2023-04-01T15:57:53.840Z,13.63
2023-04-01T16:00:32.961Z,13.60
2023-04-01T16:03:20.988Z,13.58
2023-04-01T16:06:10.615Z,13.62
2023-04-01T16:09:03.906Z,13.49
2023-04-01T16:11:46.040Z,13.54
2023-04-01T16:14:33.834Z,13.71
2023-04-01T16:17:28.497Z,13.63
2023-04-01T16:20:04.713Z,13.67
2023-04-01T16:22:46.292Z,13.63
2023-04-01T16:25:40.715Z,13.61
2023-04-01T16:28:24.069Z,13.58
2023-04-01T16:31:05.520Z,13.64
2023-04-01T16:33:49.531Z,13.57
2023-04-01T16:36:31.180Z,13.57
2023-04-01T16:39:28.438Z,13.54
2023-04-01T16:42:19.117Z,13.45
2023-04-01T16:44:57.867Z,13.48
2023-04-01T16:47:33.479Z,13.51
2023-04-01T16:50:21.111Z,13.46
2023-04-01T16:53:02.729Z,13.41
2023-04-01T16:55:48.869Z,13.38
2023-04-01T16:58:28.539Z,13.39
2023-04-01T17:01:06.282Z,13.42
2023-04-01T17:03:44.591Z,13.37
2023-04-01T17:06:30.642Z,13.36
2023-04-01T17:09:19.352Z,13.34
2023-04-01T17:11:58.765Z,13.36
2023-04-01T17:14:37.639Z,13.40
2023-04-01T17:17:28.756Z,13.33
2023-04-01T17:20:49.223Z,13.34
2023-04-01T17:23:32.510Z,13.30
2023-04-01T17:26:22.861Z,13.33
2023-04-01T17:29:05.027Z,13.25
2023-04-01T17:31:47.982Z,13.32
2023-04-01T17:34:38.079Z,13.27
2023-04-01T17:37:30.497Z,13.26
2023-04-01T17:40:29.311Z,13.28
2023-04-01T17:43:12.015Z,13.22
2023-04-01T17:45:49.235Z,13.23
2023-04-01T17:48:34.245Z,13.25
2023-04-01T17:51:19.375Z,13.21
2023-04-01T17:54:04.375Z,13.22
2023-04-01T17:56:51.596Z,13.16
2023-04-01T17:59:33.702Z,13.14
2023-04-01T18:02:19.309Z,13.12
2023-04-01T18:05:40.604Z,13.10
2023-04-01T18:08:17.236Z,13.09
2023-04-01T18:11:07.797Z,13.06
2023-04-01T18:14:21.473Z,13.09
2023-04-01T18:17:13.949Z,13.05
2023-04-01T18:19:57.451Z,13.04
2023-04-01T18:22:39.786Z,13.05
2023-04-01T18:25:22.879Z,12.98
2023-04-01T18:28:17.448Z,12.96
2023-04-01T18:30:58.693Z,12.94
2023-04-01T18:33:36.465Z,12.92
2023-04-01T18:36:20.503Z,12.90
2023-04-01T18:38:57.160Z,12.89
2023-04-01T18:41:36.224Z,12.89
2023-04-01T18:44:29.747Z,12.89
2023-04-01T18:47:17.773Z,12.89
2023-04-01T18:49:56.160Z,12.86
2023-04-01T18:52:35.644Z,12.88
2023-04-01T18:55:27.352Z,12.87
2023-04-01T18:58:16.136Z,12.87
2023-04-01T19:01:01.885Z,12.83
2023-04-01T19:03:43.002Z,12.81
2023-04-01T19:06:22.111Z,12.80
2023-04-01T19:08:55.427Z,12.79
2023-04-01T19:11:38.577Z,12.79
2023-04-01T19:14:17.260Z,12.77
2023-04-01T19:17:03.424Z,12.76
2023-04-01T19:19:52.042Z,12.77
2023-04-01T19:22:41.370Z,12.74
2023-04-01T19:25:32.324Z,12.75
2023-04-01T19:28:18.603Z,12.73
2023-04-01T19:30:57.021Z,12.69
2023-04-01T19:33:42.070Z,12.71
2023-04-01T19:36:26.449Z,12.68
2023-04-01T19:39:11.971Z,12.67
2023-04-01T19:41:52.632Z,12.63
2023-04-01T19:44:39.234Z,12.66
2023-04-01T19:47:23.924Z,12.63
2023-04-01T19:50:04.325Z,12.68
2023-04-01T19:52:42.290Z,12.60
2023-04-01T19:55:24.346Z,12.66
2023-04-01T19:58:07.394Z,12.68
2023-04-01T20:00:45.179Z,12.63
2023-04-01T20:03:28.088Z,12.59
2023-04-01T20:06:11.421Z,12.57
2023-04-01T20:08:52.994Z,12.58
2023-04-01T20:11:39.934Z,12.55
2023-04-01T20:14:23.308Z,12.51
2023-04-01T20:17:03.686Z,12.54
2023-04-01T20:19:41.188Z,12.53
2023-04-01T20:22:30.895Z,12.50
2023-04-01T20:25:14.918Z,12.49
2023-04-01T20:27:53.246Z,12.41
2023-04-01T20:30:55.739Z,12.50
2023-04-01T20:33:48.318Z,12.50
2023-04-01T20:36:29.733Z,12.49
2023-04-01T20:39:22.119Z,12.50
2023-04-01T20:42:14.969Z,12.51
2023-04-01T20:44:54.027Z,12.35
2023-04-01T20:47:47.940Z,12.45
2023-04-01T20:50:26.186Z,12.52
2023-04-01T20:53:06.876Z,12.49
2023-04-01T20:56:26.603Z,12.50
2023-04-01T20:59:24.901Z,12.41
2023-04-01T21:02:10.980Z,12.32
2023-04-01T21:05:23.269Z,12.37
2023-04-01T21:08:00.771Z,12.32
2023-04-01T21:10:42.355Z,12.23
2023-04-01T21:13:35.424Z,12.28
2023-04-01T21:16:26.067Z,12.21
2023-04-01T21:19:11.117Z,12.20
2023-04-01T21:22:01.430Z,12.15
2023-04-01T21:24:58.940Z,12.24
2023-04-01T21:27:47.152Z,12.18
2023-04-01T21:30:45.537Z,12.25
2023-04-01T21:33:38.209Z,12.16
2023-04-01T21:36:22.045Z,12.22
2023-04-01T21:39:11.127Z,12.19
2023-04-01T21:42:03.413Z,12.10
2023-04-01T21:44:50.824Z,12.15
2023-04-01T21:47:57.218Z,12.12
2023-04-01T21:50:57.705Z,12.09
2023-04-01T21:54:19.004Z,12.06
2023-04-01T21:57:39.267Z,12.11
2023-04-01T22:00:20.824Z,12.11
2023-04-01T22:03:29.428Z,11.98
2023-04-01T22:06:22.196Z,12.08
2023-04-01T22:09:02.386Z,12.01
2023-04-01T22:11:50.389Z,11.88
2023-04-01T22:14:29.751Z,11.98
2023-04-01T22:17:14.502Z,11.94
2023-04-01T22:19:58.047Z,12.02
2023-04-01T22:22:51.571Z,11.88
2023-04-01T22:25:31.845Z,11.92
2023-04-01T22:28:10.469Z,11.97
2023-04-01T22:30:49.428Z,11.98
2023-04-01T22:33:38.913Z,11.84
2023-04-01T22:36:24.603Z,11.84
2023-04-01T22:39:12.229Z,11.88
2023-04-01T22:42:01.821Z,11.72
2023-04-01T22:44:51.819Z,11.73
2023-04-01T22:47:32.459Z,11.80
2023-04-01T22:50:12.318Z,11.72
2023-04-01T22:52:49.223Z,11.81
2023-04-01T22:55:27.549Z,11.76
2023-04-01T22:58:06.015Z,11.76
2023-04-01T23:00:44.353Z,11.74
2023-04-01T23:03:21.070Z,11.75
2023-04-01T23:05:56.352Z,11.71
2023-04-01T23:08:52.452Z,11.72
2023-04-01T23:11:32.013Z,11.62
2023-04-01T23:14:34.400Z,11.67
2023-04-01T23:17:18.898Z,11.71
2023-04-01T23:19:59.888Z,11.66
2023-04-01T23:22:38.192Z,11.60
2023-04-01T23:25:27.023Z,11.63
2023-04-01T23:28:21.509Z,11.63
2023-04-01T23:30:55.013Z,11.59
2023-04-01T23:33:31.695Z,11.55
2023-04-01T23:36:13.870Z,11.51
2023-04-01T23:38:50.926Z,11.54
2023-04-01T23:41:27.504Z,11.55
2023-04-01T23:44:09.644Z,11.56
2023-04-01T23:46:46.577Z,11.51
2023-04-01T23:49:22.554Z,11.48
2023-04-01T23:51:59.696Z,11.53
2023-04-01T23:54:35.472Z,11.54
2023-04-01T23:57:14.406Z,11.52
